Adolphus, Kentucky
Current Conditions -  °F | °C
As of 2:53 AM on Thursday 18 Dec 2014 (Local Time) from KBWG Reporting Station
Unknown Precip Unknown Precip  
Wind Chill: 26°   Ceiling: 8000
Heat Index: 31°   Visibility: 7mi
Dew Point: 25°   Wind: 5mph
Humidity: 79%   Direction: 40°NE
Pressure: 30.29"   Gusts: NA
Location:  36.65°N, 86.26°W
Report Text: KBWG 180853Z AUTO 04004KT 7SM UP OVC080 M01/M04 A3029 RMK AO2 UPB31 SLP260 P0000 60000 T10061039 58000
Loading
Personal Weather Stations






























Interactive Weather Map New forecast layout! Learn more

10-Day Weather Forecast

Advertisements
Track Severe Weather on mobile